sensor_id;sensor_type;location;lat;lon;timestamp;P1;durP1;ratioP1;P2;durP2;ratioP2
24713;SDS011;12820;51.580;5.010;2023-03-01T00:00:25;15.48;;;8.40;;
24713;SDS011;12820;51.580;5.010;2023-03-01T00:05:27;16.17;;;9.50;;
24713;SDS011;12820;51.580;5.010;2023-03-01T00:10:29;15.18;;;8.80;;
24713;SDS011;12820;51.580;5.010;2023-03-01T00:15:31;15.02;;;8.48;;
24713;SDS011;12820;51.580;5.010;2023-03-01T00:20:34;16.70;;;8.50;;
24713;SDS011;12820;51.580;5.010;2023-03-01T00:25:40;14.50;;;8.57;;
24713;SDS011;12820;51.580;5.010;2023-03-01T00:30:44;15.65;;;8.40;;
24713;SDS011;12820;51.580;5.010;2023-03-01T00:35:47;14.55;;;8.00;;
24713;SDS011;12820;51.580;5.010;2023-03-01T00:40:49;15.43;;;8.20;;
24713;SDS011;12820;51.580;5.010;2023-03-01T00:45:51;15.65;;;8.60;;
24713;SDS011;12820;51.580;5.010;2023-03-01T00:50:54;14.93;;;8.75;;
24713;SDS011;12820;51.580;5.010;2023-03-01T00:55:56;16.80;;;8.57;;
24713;SDS011;12820;51.580;5.010;2023-03-01T01:00:59;19.90;;;8.70;;
24713;SDS011;12820;51.580;5.010;2023-03-01T01:06:01;17.52;;;8.55;;
24713;SDS011;12820;51.580;5.010;2023-03-01T01:11:11;16.13;;;8.93;;
24713;SDS011;12820;51.580;5.010;2023-03-01T01:16:15;15.30;;;8.73;;
24713;SDS011;12820;51.580;5.010;2023-03-01T01:21:19;17.08;;;8.82;;
24713;SDS011;12820;51.580;5.010;2023-03-01T01:26:26;16.60;;;8.65;;
24713;SDS011;12820;51.580;5.010;2023-03-01T01:31:31;17.08;;;8.98;;
24713;SDS011;12820;51.580;5.010;2023-03-01T01:36:36;18.38;;;9.05;;
24713;SDS011;12820;51.580;5.010;2023-03-01T01:41:39;16.00;;;9.25;;
24713;SDS011;12820;51.580;5.010;2023-03-01T01:57:15;18.35;;;9.05;;
24713;SDS011;12820;51.580;5.010;2023-03-01T02:02:21;14.93;;;8.60;;
24713;SDS011;12820;51.580;5.010;2023-03-01T02:07:23;17.13;;;9.38;;
24713;SDS011;12820;51.580;5.010;2023-03-01T02:12:26;19.48;;;9.35;;
24713;SDS011;12820;51.580;5.010;2023-03-01T02:17:29;18.15;;;9.48;;
24713;SDS011;12820;51.580;5.010;2023-03-01T02:22:32;17.77;;;9.15;;
24713;SDS011;12820;51.580;5.010;2023-03-01T02:27:38;14.98;;;9.02;;
24713;SDS011;12820;51.580;5.010;2023-03-01T02:32:45;17.55;;;9.13;;
24713;SDS011;12820;51.580;5.010;2023-03-01T02:37:47;18.50;;;9.15;;
24713;SDS011;12820;51.580;5.010;2023-03-01T02:42:51;16.63;;;9.52;;
24713;SDS011;12820;51.580;5.010;2023-03-01T02:47:57;16.48;;;8.85;;
24713;SDS011;12820;51.580;5.010;2023-03-01T02:53:04;19.38;;;10.10;;
24713;SDS011;12820;51.580;5.010;2023-03-01T02:58:12;16.98;;;9.23;;
24713;SDS011;12820;51.580;5.010;2023-03-01T03:03:15;15.27;;;9.20;;
24713;SDS011;12820;51.580;5.010;2023-03-01T03:08:18;17.13;;;8.80;;
24713;SDS011;12820;51.580;5.010;2023-03-01T03:13:26;16.13;;;9.13;;
24713;SDS011;12820;51.580;5.010;2023-03-01T03:18:30;17.48;;;10.27;;
24713;SDS011;12820;51.580;5.010;2023-03-01T03:23:32;17.40;;;9.40;;
24713;SDS011;12820;51.580;5.010;2023-03-01T03:28:35;15.77;;;8.82;;
24713;SDS011;12820;51.580;5.010;2023-03-01T03:33:37;16.27;;;9.52;;
24713;SDS011;12820;51.580;5.010;2023-03-01T03:38:40;17.05;;;9.38;;
24713;SDS011;12820;51.580;5.010;2023-03-01T03:43:42;14.98;;;8.45;;
24713;SDS011;12820;51.580;5.010;2023-03-01T03:48:45;15.55;;;8.82;;
24713;SDS011;12820;51.580;5.010;2023-03-01T03:53:48;18.02;;;9.13;;
24713;SDS011;12820;51.580;5.010;2023-03-01T03:58:50;15.90;;;8.75;;
24713;SDS011;12820;51.580;5.010;2023-03-01T04:03:52;15.98;;;8.80;;
24713;SDS011;12820;51.580;5.010;2023-03-01T04:08:56;14.95;;;8.85;;
24713;SDS011;12820;51.580;5.010;2023-03-01T04:14:00;18.98;;;9.60;;
24713;SDS011;12820;51.580;5.010;2023-03-01T04:19:02;16.30;;;8.73;;
24713;SDS011;12820;51.580;5.010;2023-03-01T04:24:04;15.88;;;9.07;;
24713;SDS011;12820;51.580;5.010;2023-03-01T04:29:06;21.50;;;9.35;;
24713;SDS011;12820;51.580;5.010;2023-03-01T04:34:08;17.38;;;8.45;;
24713;SDS011;12820;51.580;5.010;2023-03-01T04:39:11;15.50;;;8.27;;
24713;SDS011;12820;51.580;5.010;2023-03-01T04:44:16;14.43;;;8.05;;
24713;SDS011;12820;51.580;5.010;2023-03-01T04:49:18;16.83;;;7.85;;
24713;SDS011;12820;51.580;5.010;2023-03-01T04:54:20;16.48;;;8.05;;
24713;SDS011;12820;51.580;5.010;2023-03-01T04:59:22;15.65;;;8.38;;
24713;SDS011;12820;51.580;5.010;2023-03-01T05:04:24;16.67;;;9.00;;
24713;SDS011;12820;51.580;5.010;2023-03-01T05:09:26;14.68;;;7.88;;
24713;SDS011;12820;51.580;5.010;2023-03-01T05:14:28;16.80;;;8.40;;
24713;SDS011;12820;51.580;5.010;2023-03-01T05:19:31;14.43;;;8.18;;
24713;SDS011;12820;51.580;5.010;2023-03-01T05:24:34;14.75;;;7.60;;
24713;SDS011;12820;51.580;5.010;2023-03-01T05:29:36;17.85;;;9.13;;
24713;SDS011;12820;51.580;5.010;2023-03-01T05:34:41;16.15;;;9.18;;
24713;SDS011;12820;51.580;5.010;2023-03-01T05:39:43;19.67;;;10.07;;
24713;SDS011;12820;51.580;5.010;2023-03-01T05:44:46;17.63;;;9.68;;
24713;SDS011;12820;51.580;5.010;2023-03-01T05:49:48;20.27;;;9.55;;
24713;SDS011;12820;51.580;5.010;2023-03-01T05:54:52;17.75;;;9.63;;
24713;SDS011;12820;51.580;5.010;2023-03-01T05:59:54;16.73;;;9.52;;
24713;SDS011;12820;51.580;5.010;2023-03-01T06:04:56;17.55;;;9.55;;
24713;SDS011;12820;51.580;5.010;2023-03-01T06:09:58;22.40;;;10.60;;
24713;SDS011;12820;51.580;5.010;2023-03-01T06:15:00;23.95;;;11.80;;
24713;SDS011;12820;51.580;5.010;2023-03-01T06:20:04;19.20;;;10.98;;
24713;SDS011;12820;51.580;5.010;2023-03-01T06:25:08;19.15;;;10.00;;
24713;SDS011;12820;51.580;5.010;2023-03-01T06:30:12;19.52;;;9.05;;
24713;SDS011;12820;51.580;5.010;2023-03-01T06:35:17;15.70;;;8.82;;
24713;SDS011;12820;51.580;5.010;2023-03-01T06:40:20;16.95;;;8.38;;
24713;SDS011;12820;51.580;5.010;2023-03-01T06:45:23;17.60;;;8.55;;
24713;SDS011;12820;51.580;5.010;2023-03-01T06:50:26;15.35;;;8.30;;
24713;SDS011;12820;51.580;5.010;2023-03-01T06:55:28;19.85;;;9.10;;
24713;SDS011;12820;51.580;5.010;2023-03-01T07:00:30;14.80;;;8.65;;
24713;SDS011;12820;51.580;5.010;2023-03-01T07:05:32;17.58;;;8.93;;
24713;SDS011;12820;51.580;5.010;2023-03-01T07:10:35;18.40;;;8.75;;
24713;SDS011;12820;51.580;5.010;2023-03-01T07:15:37;17.75;;;8.77;;
24713;SDS011;12820;51.580;5.010;2023-03-01T07:20:39;19.80;;;8.88;;
24713;SDS011;12820;51.580;5.010;2023-03-01T07:25:41;16.27;;;8.50;;
24713;SDS011;12820;51.580;5.010;2023-03-01T07:30:43;16.80;;;8.55;;
24713;SDS011;12820;51.580;5.010;2023-03-01T07:35:46;17.90;;;9.45;;
24713;SDS011;12820;51.580;5.010;2023-03-01T07:40:48;22.73;;;8.57;;
24713;SDS011;12820;51.580;5.010;2023-03-01T07:45:51;19.15;;;8.95;;
24713;SDS011;12820;51.580;5.010;2023-03-01T07:50:53;15.25;;;7.45;;
24713;SDS011;12820;51.580;5.010;2023-03-01T07:56:06;18.50;;;8.45;;
24713;SDS011;12820;51.580;5.010;2023-03-01T08:01:11;14.77;;;7.35;;
24713;SDS011;12820;51.580;5.010;2023-03-01T08:06:16;15.32;;;8.05;;
24713;SDS011;12820;51.580;5.010;2023-03-01T08:11:19;13.68;;;7.97;;
24713;SDS011;12820;51.580;5.010;2023-03-01T08:16:21;14.43;;;7.95;;
24713;SDS011;12820;51.580;5.010;2023-03-01T08:21:23;14.25;;;7.60;;
24713;SDS011;12820;51.580;5.010;2023-03-01T08:26:25;18.85;;;7.82;;
24713;SDS011;12820;51.580;5.010;2023-03-01T08:31:36;15.35;;;7.78;;
24713;SDS011;12820;51.580;5.010;2023-03-01T08:36:41;16.48;;;7.85;;
24713;SDS011;12820;51.580;5.010;2023-03-01T08:41:45;21.58;;;7.88;;
24713;SDS011;12820;51.580;5.010;2023-03-01T08:46:49;14.85;;;7.72;;
24713;SDS011;12820;51.580;5.010;2023-03-01T08:51:53;20.38;;;8.75;;
24713;SDS011;12820;51.580;5.010;2023-03-01T08:56:56;18.92;;;9.45;;
24713;SDS011;12820;51.580;5.010;2023-03-01T09:02:00;19.67;;;9.32;;
24713;SDS011;12820;51.580;5.010;2023-03-01T09:07:02;22.67;;;10.40;;
24713;SDS011;12820;51.580;5.010;2023-03-01T09:12:05;23.42;;;10.23;;
24713;SDS011;12820;51.580;5.010;2023-03-01T09:17:07;16.52;;;8.50;;
24713;SDS011;12820;51.580;5.010;2023-03-01T09:22:09;14.70;;;7.43;;
24713;SDS011;12820;51.580;5.010;2023-03-01T09:27:11;15.90;;;7.07;;
24713;SDS011;12820;51.580;5.010;2023-03-01T09:32:15;19.13;;;7.68;;
24713;SDS011;12820;51.580;5.010;2023-03-01T09:37:18;11.85;;;6.82;;
24713;SDS011;12820;51.580;5.010;2023-03-01T09:42:20;16.77;;;7.78;;
24713;SDS011;12820;51.580;5.010;2023-03-01T09:47:32;15.60;;;7.70;;
24713;SDS011;12820;51.580;5.010;2023-03-01T09:52:46;14.65;;;7.13;;
24713;SDS011;12820;51.580;5.010;2023-03-01T09:58:00;12.10;;;6.72;;
24713;SDS011;12820;51.580;5.010;2023-03-01T10:08:41;11.80;;;6.50;;
24713;SDS011;12820;51.580;5.010;2023-03-01T10:13:59;12.55;;;6.75;;
24713;SDS011;12820;51.580;5.010;2023-03-01T10:19:09;12.52;;;6.72;;
24713;SDS011;12820;51.580;5.010;2023-03-01T10:24:16;12.70;;;6.50;;
24713;SDS011;12820;51.580;5.010;2023-03-01T10:29:26;13.43;;;6.30;;
24713;SDS011;12820;51.580;5.010;2023-03-01T10:34:36;12.88;;;6.25;;
24713;SDS011;12820;51.580;5.010;2023-03-01T10:39:54;12.82;;;7.10;;
24713;SDS011;12820;51.580;5.010;2023-03-01T10:44:58;17.08;;;7.50;;
24713;SDS011;12820;51.580;5.010;2023-03-01T10:50:32;12.27;;;6.00;;
24713;SDS011;12820;51.580;5.010;2023-03-01T10:55:35;12.27;;;6.97;;
24713;SDS011;12820;51.580;5.010;2023-03-01T11:00:55;15.15;;;6.35;;
24713;SDS011;12820;51.580;5.010;2023-03-01T11:06:00;12.40;;;7.00;;
24713;SDS011;12820;51.580;5.010;2023-03-01T11:11:52;9.98;;;5.68;;
24713;SDS011;12820;51.580;5.010;2023-03-01T11:16:35;11.35;;;5.70;;
24713;SDS011;12820;51.580;5.010;2023-03-01T11:27:25;11.90;;;7.13;;
24713;SDS011;12820;51.580;5.010;2023-03-01T11:32:35;13.13;;;6.90;;
24713;SDS011;12820;51.580;5.010;2023-03-01T12:09:35;11.25;;;5.82;;
24713;SDS011;12820;51.580;5.010;2023-03-01T12:25:12;12.90;;;6.17;;
24713;SDS011;12820;51.580;5.010;2023-03-01T12:41:39;12.73;;;6.22;;
24713;SDS011;12820;51.580;5.010;2023-03-01T12:51:59;10.70;;;5.68;;
24713;SDS011;12820;51.580;5.010;2023-03-01T12:57:51;17.55;;;6.75;;
24713;SDS011;12820;51.580;5.010;2023-03-01T13:02:49;12.25;;;6.55;;
24713;SDS011;12820;51.580;5.010;2023-03-01T13:08:00;10.13;;;6.00;;
24713;SDS011;12820;51.580;5.010;2023-03-01T13:23:25;20.80;;;7.40;;
24713;SDS011;12820;51.580;5.010;2023-03-01T13:33:47;15.00;;;6.47;;
24713;SDS011;12820;51.580;5.010;2023-03-01T13:43:55;16.92;;;6.35;;
24713;SDS011;12820;51.580;5.010;2023-03-01T13:48:57;9.70;;;6.15;;
24713;SDS011;12820;51.580;5.010;2023-03-01T13:54:00;9.32;;;6.20;;
24713;SDS011;12820;51.580;5.010;2023-03-01T13:59:04;8.77;;;5.28;;
24713;SDS011;12820;51.580;5.010;2023-03-01T14:04:21;12.68;;;5.50;;
24713;SDS011;12820;51.580;5.010;2023-03-01T14:09:28;9.23;;;5.63;;
24713;SDS011;12820;51.580;5.010;2023-03-01T14:14:55;8.90;;;5.32;;
24713;SDS011;12820;51.580;5.010;2023-03-01T14:19:59;7.00;;;4.78;;
24713;SDS011;12820;51.580;5.010;2023-03-01T14:25:19;8.57;;;5.47;;
24713;SDS011;12820;51.580;5.010;2023-03-01T14:30:27;8.30;;;5.00;;
24713;SDS011;12820;51.580;5.010;2023-03-01T14:35:35;6.32;;;4.50;;
24713;SDS011;12820;51.580;5.010;2023-03-01T14:40:37;6.68;;;4.75;;
24713;SDS011;12820;51.580;5.010;2023-03-01T14:45:40;8.57;;;4.78;;
24713;SDS011;12820;51.580;5.010;2023-03-01T14:50:50;9.40;;;4.97;;
24713;SDS011;12820;51.580;5.010;2023-03-01T14:55:53;9.55;;;5.10;;
24713;SDS011;12820;51.580;5.010;2023-03-01T15:00:58;6.85;;;4.75;;
24713;SDS011;12820;51.580;5.010;2023-03-01T15:06:03;8.73;;;4.85;;
24713;SDS011;12820;51.580;5.010;2023-03-01T15:16:16;10.18;;;6.35;;
24713;SDS011;12820;51.580;5.010;2023-03-01T15:21:24;9.70;;;5.68;;
24713;SDS011;12820;51.580;5.010;2023-03-01T15:26:39;9.15;;;5.15;;
24713;SDS011;12820;51.580;5.010;2023-03-01T15:31:47;9.68;;;5.60;;
24713;SDS011;12820;51.580;5.010;2023-03-01T15:37:03;8.85;;;5.18;;
24713;SDS011;12820;51.580;5.010;2023-03-01T15:42:10;7.82;;;5.57;;
24713;SDS011;12820;51.580;5.010;2023-03-01T15:47:25;9.20;;;5.38;;
24713;SDS011;12820;51.580;5.010;2023-03-01T15:52:38;8.23;;;4.95;;
24713;SDS011;12820;51.580;5.010;2023-03-01T15:57:42;7.93;;;5.32;;
24713;SDS011;12820;51.580;5.010;2023-03-01T16:02:44;11.38;;;5.60;;
24713;SDS011;12820;51.580;5.010;2023-03-01T16:07:47;10.98;;;5.63;;
24713;SDS011;12820;51.580;5.010;2023-03-01T16:12:49;10.85;;;5.95;;
24713;SDS011;12820;51.580;5.010;2023-03-01T16:17:54;11.80;;;6.32;;
24713;SDS011;12820;51.580;5.010;2023-03-01T16:23:00;9.68;;;5.75;;
24713;SDS011;12820;51.580;5.010;2023-03-01T16:28:03;9.38;;;5.88;;
24713;SDS011;12820;51.580;5.010;2023-03-01T16:33:10;10.43;;;6.10;;
24713;SDS011;12820;51.580;5.010;2023-03-01T16:38:30;11.25;;;7.28;;
24713;SDS011;12820;51.580;5.010;2023-03-01T16:43:33;10.07;;;6.18;;
24713;SDS011;12820;51.580;5.010;2023-03-01T16:48:35;11.20;;;6.22;;
24713;SDS011;12820;51.580;5.010;2023-03-01T16:53:37;11.50;;;6.57;;
24713;SDS011;12820;51.580;5.010;2023-03-01T16:58:40;14.10;;;6.55;;
24713;SDS011;12820;51.580;5.010;2023-03-01T17:03:43;15.88;;;7.78;;
24713;SDS011;12820;51.580;5.010;2023-03-01T17:08:46;13.40;;;7.78;;
24713;SDS011;12820;51.580;5.010;2023-03-01T17:13:48;19.25;;;9.30;;
24713;SDS011;12820;51.580;5.010;2023-03-01T17:18:50;12.25;;;6.90;;
24713;SDS011;12820;51.580;5.010;2023-03-01T17:23:56;13.98;;;7.47;;
24713;SDS011;12820;51.580;5.010;2023-03-01T17:28:59;17.70;;;9.15;;
24713;SDS011;12820;51.580;5.010;2023-03-01T17:34:01;18.15;;;8.75;;
24713;SDS011;12820;51.580;5.010;2023-03-01T17:39:03;15.43;;;7.90;;
24713;SDS011;12820;51.580;5.010;2023-03-01T17:44:05;15.32;;;7.63;;
24713;SDS011;12820;51.580;5.010;2023-03-01T17:49:07;23.77;;;10.73;;
24713;SDS011;12820;51.580;5.010;2023-03-01T17:54:10;20.88;;;11.10;;
24713;SDS011;12820;51.580;5.010;2023-03-01T17:59:12;18.45;;;9.32;;
24713;SDS011;12820;51.580;5.010;2023-03-01T18:04:14;15.10;;;8.48;;
24713;SDS011;12820;51.580;5.010;2023-03-01T18:09:16;17.65;;;7.90;;
24713;SDS011;12820;51.580;5.010;2023-03-01T18:14:18;14.88;;;8.25;;
24713;SDS011;12820;51.580;5.010;2023-03-01T18:19:21;13.57;;;7.57;;
24713;SDS011;12820;51.580;5.010;2023-03-01T18:24:23;15.40;;;7.90;;
24713;SDS011;12820;51.580;5.010;2023-03-01T18:29:25;14.82;;;8.32;;
24713;SDS011;12820;51.580;5.010;2023-03-01T18:34:27;18.52;;;8.30;;
24713;SDS011;12820;51.580;5.010;2023-03-01T18:39:29;17.90;;;8.25;;
24713;SDS011;12820;51.580;5.010;2023-03-01T18:44:31;17.38;;;8.15;;
24713;SDS011;12820;51.580;5.010;2023-03-01T18:49:34;17.52;;;8.00;;
24713;SDS011;12820;51.580;5.010;2023-03-01T18:54:36;21.67;;;9.82;;
24713;SDS011;12820;51.580;5.010;2023-03-01T18:59:39;15.60;;;8.15;;
24713;SDS011;12820;51.580;5.010;2023-03-01T19:04:41;15.07;;;8.40;;
24713;SDS011;12820;51.580;5.010;2023-03-01T19:09:43;17.55;;;8.88;;
24713;SDS011;12820;51.580;5.010;2023-03-01T19:14:46;34.22;;;14.65;;
24713;SDS011;12820;51.580;5.010;2023-03-01T19:19:52;25.17;;;13.35;;
24713;SDS011;12820;51.580;5.010;2023-03-01T19:24:54;18.88;;;9.48;;
24713;SDS011;12820;51.580;5.010;2023-03-01T19:29:56;18.30;;;9.45;;
24713;SDS011;12820;51.580;5.010;2023-03-01T19:34:58;24.92;;;11.52;;
24713;SDS011;12820;51.580;5.010;2023-03-01T19:40:01;23.73;;;10.75;;
24713;SDS011;12820;51.580;5.010;2023-03-01T19:45:03;19.13;;;9.45;;
24713;SDS011;12820;51.580;5.010;2023-03-01T19:50:06;23.10;;;10.45;;
24713;SDS011;12820;51.580;5.010;2023-03-01T19:55:08;22.30;;;9.68;;
24713;SDS011;12820;51.580;5.010;2023-03-01T20:00:11;18.48;;;9.60;;
24713;SDS011;12820;51.580;5.010;2023-03-01T20:05:13;18.40;;;9.63;;
24713;SDS011;12820;51.580;5.010;2023-03-01T20:10:16;19.95;;;9.38;;
24713;SDS011;12820;51.580;5.010;2023-03-01T20:15:18;15.05;;;7.95;;
24713;SDS011;12820;51.580;5.010;2023-03-01T20:20:21;15.10;;;7.63;;
24713;SDS011;12820;51.580;5.010;2023-03-01T20:25:23;16.45;;;8.38;;
24713;SDS011;12820;51.580;5.010;2023-03-01T20:30:25;17.88;;;8.98;;
24713;SDS011;12820;51.580;5.010;2023-03-01T20:35:27;14.98;;;7.18;;
24713;SDS011;12820;51.580;5.010;2023-03-01T20:40:33;16.05;;;7.85;;
24713;SDS011;12820;51.580;5.010;2023-03-01T20:45:37;11.77;;;6.60;;
24713;SDS011;12820;51.580;5.010;2023-03-01T20:50:39;11.50;;;5.93;;
24713;SDS011;12820;51.580;5.010;2023-03-01T20:55:42;12.23;;;5.78;;
24713;SDS011;12820;51.580;5.010;2023-03-01T21:00:44;12.43;;;6.05;;
24713;SDS011;12820;51.580;5.010;2023-03-01T21:05:46;11.38;;;5.50;;
24713;SDS011;12820;51.580;5.010;2023-03-01T21:10:49;12.82;;;5.65;;
24713;SDS011;12820;51.580;5.010;2023-03-01T21:15:52;15.13;;;6.38;;
24713;SDS011;12820;51.580;5.010;2023-03-01T21:21:02;11.50;;;5.90;;
24713;SDS011;12820;51.580;5.010;2023-03-01T21:31:10;11.80;;;6.07;;
24713;SDS011;12820;51.580;5.010;2023-03-01T21:36:14;14.55;;;7.13;;
24713;SDS011;12820;51.580;5.010;2023-03-01T21:41:18;12.85;;;6.78;;
24713;SDS011;12820;51.580;5.010;2023-03-01T21:46:22;13.13;;;7.03;;
24713;SDS011;12820;51.580;5.010;2023-03-01T21:51:26;14.48;;;6.35;;
24713;SDS011;12820;51.580;5.010;2023-03-01T21:56:29;13.25;;;6.60;;
24713;SDS011;12820;51.580;5.010;2023-03-01T22:01:36;10.80;;;5.68;;
24713;SDS011;12820;51.580;5.010;2023-03-01T22:06:39;13.13;;;6.82;;
24713;SDS011;12820;51.580;5.010;2023-03-01T22:11:44;14.00;;;6.95;;
24713;SDS011;12820;51.580;5.010;2023-03-01T22:16:49;12.15;;;6.43;;
24713;SDS011;12820;51.580;5.010;2023-03-01T22:21:54;14.75;;;6.15;;
24713;SDS011;12820;51.580;5.010;2023-03-01T22:26:57;13.05;;;6.50;;
24713;SDS011;12820;51.580;5.010;2023-03-01T22:31:59;12.75;;;6.10;;
24713;SDS011;12820;51.580;5.010;2023-03-01T22:37:01;13.63;;;6.45;;
24713;SDS011;12820;51.580;5.010;2023-03-01T22:42:04;12.73;;;7.03;;
24713;SDS011;12820;51.580;5.010;2023-03-01T22:47:07;14.85;;;6.72;;
24713;SDS011;12820;51.580;5.010;2023-03-01T22:52:09;12.80;;;6.68;;
24713;SDS011;12820;51.580;5.010;2023-03-01T22:57:11;15.88;;;7.32;;
24713;SDS011;12820;51.580;5.010;2023-03-01T23:02:13;17.48;;;7.45;;
24713;SDS011;12820;51.580;5.010;2023-03-01T23:07:16;14.43;;;6.78;;
24713;SDS011;12820;51.580;5.010;2023-03-01T23:12:18;15.38;;;6.95;;
24713;SDS011;12820;51.580;5.010;2023-03-01T23:17:21;14.15;;;6.68;;
24713;SDS011;12820;51.580;5.010;2023-03-01T23:22:23;13.75;;;7.05;;
24713;SDS011;12820;51.580;5.010;2023-03-01T23:27:25;13.20;;;6.28;;
24713;SDS011;12820;51.580;5.010;2023-03-01T23:32:27;16.35;;;7.10;;
24713;SDS011;12820;51.580;5.010;2023-03-01T23:37:29;12.98;;;6.90;;
24713;SDS011;12820;51.580;5.010;2023-03-01T23:42:32;12.52;;;6.55;;
24713;SDS011;12820;51.580;5.010;2023-03-01T23:47:35;13.15;;;7.00;;
24713;SDS011;12820;51.580;5.010;2023-03-01T23:52:37;13.23;;;7.20;;
24713;SDS011;12820;51.580;5.010;2023-03-01T23:57:42;14.85;;;6.78;;
